FNDU

Dundo Airport

Chitato, Angola
TAF FNDU 182300Z 1900/1912 VRB02KT 8000 FEW015 FEW022CB SCT025 PROB30 TEMPO 1902/1908 5000 TS -RA
Issued Valid From Valid To
Jan-18 @ 23:00 UTC
(3 hours ago)
Jan-19 @ 00:00 UTC
(2 hours ago)
Jan-19 @ 12:00 UTC
(in 10 hours)
Jan-19 @ 00:00 to Jan-19 @ 12:00
TAF FNDU 182300Z 1900/1912 VRB02KT 8000 FEW015 FEW022CB SCT025
Wind Visibility Clouds
Variable at 2 knots 7,998 meters
  • Few at 1,500' AGL
  • Few at 2,200' AGL
  • Scattered at 2,500' AGL
Temporary  (Probability 30%) Jan-19 @ 02:00 to Jan-19 @ 08:00
PROB30 TEMPO 1902/1908 5000 TS -RA
Visibility Conditions
5,005 meters
  • Thunderstorm
  • Light Rain
TAF FNDU 182300Z 1900/1912 VRB02KT 8000 FEW015 FEW022CB SCT025 PROB30 TEMPO 1902/1908 5000 TS -RA
Issued Jan-18 @ 23:00 UTC
(3 hours ago)
Valid From Jan-19 @ 00:00 UTC
(2 hours ago)
Valid To Jan-19 @ 12:00 UTC
(in 10 hours)
Jan-19 @ 00:00 - Jan-19 @ 12:00
Wind Visibility
Variable at 2 knots 7,998 meters
Clouds
  • Few at 1,500' AGL
  • Few at 2,200' AGL
  • Scattered at 2,500' AGL
Probability 30% Temporary Jan-19 @ 02:00 - Jan-19 @ 08:00
Conditions
  • Thunderstorm
  • Light Rain